Archival Weather

Chicago O'Hare International

Chicago, Illinois (KORD)

Report from: Tuesday, August 16, 2022 9:51 AM CDT
Current time: Sunday, February 25, 2024 4:35 PM CST

Current weather – Weather history – Daily summaries
Weather forecast

Temperature24.4°C (75.9°F)
Dew point13.3°C (55.9°F)
Winds 5 kts (2.6 m/s, 5.8 mph) East (80°)
Visibility10 mi. (16.1 km)
Clouds Few clouds 8,000 ft. (2,438 m)
Few clouds 25,000 ft. (7,620 m)
Altimeter30.11 in.Hg (1020 mB)
Relative humidity50 %
Density altitude1,100 ft. (335 m)
Sea-level pressure101.9 kPa (1019 mB, 30.10 in.Hg)
Remarks Automated weather observing station with precipitation discriminator
Pressure rising more slowly
Flight conditions Visual Meteorological Conditions
Raw dataKORD 161451Z 08005KT 10SM FEW080 FEW250 24/13 A3011 RMK AO2 SLP193 T02440133 51007
An error has occurred. This application may no longer respond until reloaded. Reload 🗙